sensor_id;sensor_type;location;lat;lon;timestamp;P1;durP1;ratioP1;P2;durP2;ratioP2
21192;SDS011;10754;51.106;7.164;2023-03-08T00:00:33;9.67;;;8.77;;
21192;SDS011;10754;51.106;7.164;2023-03-08T00:02:59;9.53;;;8.53;;
21192;SDS011;10754;51.106;7.164;2023-03-08T00:05:25;8.30;;;7.50;;
21192;SDS011;10754;51.106;7.164;2023-03-08T00:07:54;9.33;;;8.43;;
21192;SDS011;10754;51.106;7.164;2023-03-08T00:10:20;10.13;;;9.00;;
21192;SDS011;10754;51.106;7.164;2023-03-08T00:12:46;9.43;;;8.53;;
21192;SDS011;10754;51.106;7.164;2023-03-08T00:15:11;9.97;;;8.90;;
21192;SDS011;10754;51.106;7.164;2023-03-08T00:17:37;9.00;;;8.07;;
21192;SDS011;10754;51.106;7.164;2023-03-08T00:20:07;9.10;;;7.87;;
21192;SDS011;10754;51.106;7.164;2023-03-08T00:22:37;7.77;;;7.07;;
21192;SDS011;10754;51.106;7.164;2023-03-08T00:25:03;8.13;;;7.33;;
21192;SDS011;10754;51.106;7.164;2023-03-08T00:27:30;8.00;;;7.20;;
21192;SDS011;10754;51.106;7.164;2023-03-08T00:29:56;8.47;;;7.43;;
21192;SDS011;10754;51.106;7.164;2023-03-08T00:32:23;8.37;;;7.47;;
21192;SDS011;10754;51.106;7.164;2023-03-08T00:34:50;7.90;;;7.10;;
21192;SDS011;10754;51.106;7.164;2023-03-08T00:37:16;7.53;;;6.83;;
21192;SDS011;10754;51.106;7.164;2023-03-08T00:39:41;7.60;;;6.90;;
21192;SDS011;10754;51.106;7.164;2023-03-08T00:42:07;7.73;;;6.80;;
21192;SDS011;10754;51.106;7.164;2023-03-08T00:44:33;8.87;;;7.43;;
21192;SDS011;10754;51.106;7.164;2023-03-08T00:46:58;9.83;;;7.33;;
21192;SDS011;10754;51.106;7.164;2023-03-08T00:49:24;8.43;;;7.40;;
21192;SDS011;10754;51.106;7.164;2023-03-08T00:51:50;7.87;;;6.67;;
21192;SDS011;10754;51.106;7.164;2023-03-08T00:54:15;8.97;;;7.43;;
21192;SDS011;10754;51.106;7.164;2023-03-08T00:56:41;7.60;;;6.77;;
21192;SDS011;10754;51.106;7.164;2023-03-08T00:59:06;7.83;;;6.57;;
21192;SDS011;10754;51.106;7.164;2023-03-08T01:01:32;7.80;;;7.00;;
21192;SDS011;10754;51.106;7.164;2023-03-08T01:03:58;7.47;;;6.67;;
21192;SDS011;10754;51.106;7.164;2023-03-08T01:06:23;7.67;;;6.93;;
21192;SDS011;10754;51.106;7.164;2023-03-08T01:08:49;7.80;;;6.90;;
21192;SDS011;10754;51.106;7.164;2023-03-08T01:11:16;9.20;;;7.40;;
21192;SDS011;10754;51.106;7.164;2023-03-08T01:13:43;8.67;;;7.43;;
21192;SDS011;10754;51.106;7.164;2023-03-08T01:16:21;8.60;;;7.07;;
21192;SDS011;10754;51.106;7.164;2023-03-08T01:18:48;8.00;;;7.20;;
21192;SDS011;10754;51.106;7.164;2023-03-08T01:21:14;7.80;;;7.00;;
21192;SDS011;10754;51.106;7.164;2023-03-08T01:23:40;7.70;;;7.00;;
21192;SDS011;10754;51.106;7.164;2023-03-08T01:26:16;7.27;;;6.57;;
21192;SDS011;10754;51.106;7.164;2023-03-08T01:28:43;8.30;;;7.50;;
21192;SDS011;10754;51.106;7.164;2023-03-08T01:31:14;7.50;;;6.80;;
21192;SDS011;10754;51.106;7.164;2023-03-08T01:33:44;7.80;;;6.13;;
21192;SDS011;10754;51.106;7.164;2023-03-08T01:36:11;8.83;;;6.77;;
21192;SDS011;10754;51.106;7.164;2023-03-08T01:38:39;6.67;;;5.97;;
21192;SDS011;10754;51.106;7.164;2023-03-08T01:41:06;7.57;;;6.60;;
21192;SDS011;10754;51.106;7.164;2023-03-08T01:43:36;6.63;;;6.03;;
21192;SDS011;10754;51.106;7.164;2023-03-08T01:51:20;6.93;;;6.23;;
21192;SDS011;10754;51.106;7.164;2023-03-08T01:53:50;7.67;;;6.63;;
21192;SDS011;10754;51.106;7.164;2023-03-08T01:56:17;7.13;;;6.03;;
21192;SDS011;10754;51.106;7.164;2023-03-08T01:58:44;6.73;;;6.00;;
21192;SDS011;10754;51.106;7.164;2023-03-08T02:01:12;6.87;;;6.27;;
21192;SDS011;10754;51.106;7.164;2023-03-08T02:03:38;6.17;;;5.50;;
21192;SDS011;10754;51.106;7.164;2023-03-08T02:06:04;6.27;;;5.67;;
21192;SDS011;10754;51.106;7.164;2023-03-08T02:08:31;7.27;;;6.00;;
21192;SDS011;10754;51.106;7.164;2023-03-08T02:10:57;6.70;;;6.00;;
21192;SDS011;10754;51.106;7.164;2023-03-08T02:13:23;7.07;;;6.07;;
21192;SDS011;10754;51.106;7.164;2023-03-08T02:15:49;6.27;;;5.67;;
21192;SDS011;10754;51.106;7.164;2023-03-08T02:18:19;7.57;;;6.37;;
21192;SDS011;10754;51.106;7.164;2023-03-08T02:20:44;7.27;;;6.00;;
21192;SDS011;10754;51.106;7.164;2023-03-08T02:23:11;6.30;;;5.70;;
21192;SDS011;10754;51.106;7.164;2023-03-08T02:25:46;8.77;;;6.20;;
21192;SDS011;10754;51.106;7.164;2023-03-08T02:28:25;6.47;;;5.87;;
21192;SDS011;10754;51.106;7.164;2023-03-08T02:30:52;6.97;;;6.27;;
21192;SDS011;10754;51.106;7.164;2023-03-08T02:33:19;6.80;;;6.10;;
21192;SDS011;10754;51.106;7.164;2023-03-08T02:35:44;7.13;;;6.13;;
21192;SDS011;10754;51.106;7.164;2023-03-08T02:38:11;6.77;;;6.17;;
21192;SDS011;10754;51.106;7.164;2023-03-08T02:40:39;7.53;;;6.83;;
21192;SDS011;10754;51.106;7.164;2023-03-08T02:43:05;6.30;;;5.70;;
21192;SDS011;10754;51.106;7.164;2023-03-08T02:45:31;6.93;;;6.10;;
21192;SDS011;10754;51.106;7.164;2023-03-08T02:47:58;7.30;;;6.43;;
21192;SDS011;10754;51.106;7.164;2023-03-08T02:50:24;7.07;;;6.47;;
21192;SDS011;10754;51.106;7.164;2023-03-08T02:52:50;8.00;;;6.70;;
21192;SDS011;10754;51.106;7.164;2023-03-08T02:55:15;6.43;;;5.83;;
21192;SDS011;10754;51.106;7.164;2023-03-08T02:57:41;6.23;;;5.63;;
21192;SDS011;10754;51.106;7.164;2023-03-08T03:00:07;6.17;;;5.60;;
21192;SDS011;10754;51.106;7.164;2023-03-08T03:02:33;7.17;;;6.47;;
21192;SDS011;10754;51.106;7.164;2023-03-08T03:05:01;7.13;;;6.30;;
21192;SDS011;10754;51.106;7.164;2023-03-08T03:07:33;7.10;;;6.33;;
21192;SDS011;10754;51.106;7.164;2023-03-08T03:10:00;7.00;;;6.30;;
21192;SDS011;10754;51.106;7.164;2023-03-08T03:12:25;7.63;;;6.50;;
21192;SDS011;10754;51.106;7.164;2023-03-08T03:14:51;6.87;;;6.27;;
21192;SDS011;10754;51.106;7.164;2023-03-08T03:17:16;7.53;;;5.97;;
21192;SDS011;10754;51.106;7.164;2023-03-08T03:19:42;6.77;;;6.07;;
21192;SDS011;10754;51.106;7.164;2023-03-08T03:22:07;6.30;;;5.70;;
21192;SDS011;10754;51.106;7.164;2023-03-08T03:24:33;6.57;;;5.97;;
21192;SDS011;10754;51.106;7.164;2023-03-08T03:26:58;7.63;;;6.93;;
21192;SDS011;10754;51.106;7.164;2023-03-08T03:29:24;8.10;;;7.23;;
21192;SDS011;10754;51.106;7.164;2023-03-08T03:31:49;8.00;;;7.30;;
21192;SDS011;10754;51.106;7.164;2023-03-08T03:34:15;7.50;;;6.80;;
21192;SDS011;10754;51.106;7.164;2023-03-08T03:36:40;8.17;;;7.43;;
21192;SDS011;10754;51.106;7.164;2023-03-08T03:39:06;8.23;;;7.40;;
21192;SDS011;10754;51.106;7.164;2023-03-08T03:41:31;9.13;;;8.23;;
21192;SDS011;10754;51.106;7.164;2023-03-08T03:43:57;7.57;;;6.80;;
21192;SDS011;10754;51.106;7.164;2023-03-08T03:46:22;8.00;;;6.87;;
21192;SDS011;10754;51.106;7.164;2023-03-08T03:48:48;8.17;;;7.37;;
21192;SDS011;10754;51.106;7.164;2023-03-08T03:51:15;7.83;;;7.13;;
21192;SDS011;10754;51.106;7.164;2023-03-08T03:53:43;8.23;;;7.43;;
21192;SDS011;10754;51.106;7.164;2023-03-08T03:56:11;7.83;;;7.13;;
21192;SDS011;10754;51.106;7.164;2023-03-08T03:58:44;7.37;;;6.70;;
21192;SDS011;10754;51.106;7.164;2023-03-08T04:01:11;7.10;;;6.47;;
21192;SDS011;10754;51.106;7.164;2023-03-08T04:03:41;8.43;;;7.37;;
21192;SDS011;10754;51.106;7.164;2023-03-08T04:06:08;8.03;;;7.23;;
21192;SDS011;10754;51.106;7.164;2023-03-08T04:08:40;7.10;;;6.40;;
21192;SDS011;10754;51.106;7.164;2023-03-08T04:11:07;8.20;;;7.40;;
21192;SDS011;10754;51.106;7.164;2023-03-08T04:13:33;7.00;;;6.37;;
21192;SDS011;10754;51.106;7.164;2023-03-08T04:15:59;7.07;;;6.37;;
21192;SDS011;10754;51.106;7.164;2023-03-08T04:18:25;7.47;;;6.77;;
21192;SDS011;10754;51.106;7.164;2023-03-08T04:20:50;7.23;;;6.53;;
21192;SDS011;10754;51.106;7.164;2023-03-08T04:23:16;7.33;;;6.67;;
21192;SDS011;10754;51.106;7.164;2023-03-08T04:25:41;8.70;;;7.23;;
21192;SDS011;10754;51.106;7.164;2023-03-08T04:28:07;7.10;;;6.40;;
21192;SDS011;10754;51.106;7.164;2023-03-08T04:30:32;6.83;;;6.13;;
21192;SDS011;10754;51.106;7.164;2023-03-08T04:32:58;8.80;;;6.70;;
21192;SDS011;10754;51.106;7.164;2023-03-08T04:35:23;6.20;;;5.60;;
21192;SDS011;10754;51.106;7.164;2023-03-08T04:37:48;6.93;;;6.33;;
21192;SDS011;10754;51.106;7.164;2023-03-08T04:40:14;6.60;;;6.00;;
21192;SDS011;10754;51.106;7.164;2023-03-08T04:42:40;6.80;;;6.20;;
21192;SDS011;10754;51.106;7.164;2023-03-08T04:45:05;6.80;;;6.10;;
21192;SDS011;10754;51.106;7.164;2023-03-08T04:47:32;6.97;;;6.27;;
21192;SDS011;10754;51.106;7.164;2023-03-08T04:49:57;6.60;;;5.97;;
21192;SDS011;10754;51.106;7.164;2023-03-08T04:52:23;6.37;;;5.67;;
21192;SDS011;10754;51.106;7.164;2023-03-08T04:54:48;6.63;;;6.03;;
21192;SDS011;10754;51.106;7.164;2023-03-08T04:57:14;6.93;;;6.33;;
21192;SDS011;10754;51.106;7.164;2023-03-08T04:59:41;6.97;;;6.27;;
21192;SDS011;10754;51.106;7.164;2023-03-08T05:02:07;7.00;;;6.37;;
21192;SDS011;10754;51.106;7.164;2023-03-08T05:04:33;6.90;;;6.17;;
21192;SDS011;10754;51.106;7.164;2023-03-08T05:06:58;7.07;;;6.37;;
21192;SDS011;10754;51.106;7.164;2023-03-08T05:09:24;6.53;;;5.87;;
21192;SDS011;10754;51.106;7.164;2023-03-08T05:11:50;6.70;;;6.00;;
21192;SDS011;10754;51.106;7.164;2023-03-08T05:14:15;7.07;;;6.37;;
21192;SDS011;10754;51.106;7.164;2023-03-08T05:16:41;7.10;;;6.40;;
21192;SDS011;10754;51.106;7.164;2023-03-08T05:19:06;6.10;;;5.50;;
21192;SDS011;10754;51.106;7.164;2023-03-08T05:21:32;5.73;;;5.23;;
21192;SDS011;10754;51.106;7.164;2023-03-08T05:23:58;6.33;;;5.73;;
21192;SDS011;10754;51.106;7.164;2023-03-08T05:26:24;6.00;;;5.40;;
21192;SDS011;10754;51.106;7.164;2023-03-08T05:28:49;6.70;;;6.03;;
21192;SDS011;10754;51.106;7.164;2023-03-08T05:31:16;5.60;;;5.10;;
21192;SDS011;10754;51.106;7.164;2023-03-08T05:33:44;5.57;;;5.00;;
21192;SDS011;10754;51.106;7.164;2023-03-08T05:36:13;5.70;;;5.20;;
21192;SDS011;10754;51.106;7.164;2023-03-08T05:38:39;5.17;;;4.70;;
21192;SDS011;10754;51.106;7.164;2023-03-08T05:41:06;5.90;;;5.40;;
21192;SDS011;10754;51.106;7.164;2023-03-08T05:43:33;5.53;;;5.03;;
21192;SDS011;10754;51.106;7.164;2023-03-08T05:46:00;5.27;;;4.77;;
21192;SDS011;10754;51.106;7.164;2023-03-08T05:48:27;5.70;;;5.20;;
21192;SDS011;10754;51.106;7.164;2023-03-08T05:50:54;5.90;;;5.40;;
21192;SDS011;10754;51.106;7.164;2023-03-08T05:53:19;5.90;;;5.30;;
21192;SDS011;10754;51.106;7.164;2023-03-08T05:55:46;7.17;;;6.47;;
21192;SDS011;10754;51.106;7.164;2023-03-08T05:58:11;6.37;;;5.77;;
21192;SDS011;10754;51.106;7.164;2023-03-08T06:00:37;6.70;;;6.10;;
21192;SDS011;10754;51.106;7.164;2023-03-08T06:03:03;5.80;;;5.30;;
21192;SDS011;10754;51.106;7.164;2023-03-08T06:05:29;5.63;;;5.13;;
21192;SDS011;10754;51.106;7.164;2023-03-08T06:07:55;5.87;;;5.27;;
21192;SDS011;10754;51.106;7.164;2023-03-08T06:10:20;5.40;;;4.90;;
21192;SDS011;10754;51.106;7.164;2023-03-08T06:12:46;5.27;;;4.77;;
21192;SDS011;10754;51.106;7.164;2023-03-08T06:15:12;5.17;;;4.67;;
21192;SDS011;10754;51.106;7.164;2023-03-08T06:17:38;5.17;;;4.70;;
21192;SDS011;10754;51.106;7.164;2023-03-08T06:20:04;5.67;;;5.17;;
21192;SDS011;10754;51.106;7.164;2023-03-08T06:22:30;4.53;;;4.07;;
21192;SDS011;10754;51.106;7.164;2023-03-08T06:24:56;4.87;;;4.37;;
21192;SDS011;10754;51.106;7.164;2023-03-08T06:27:21;5.03;;;4.53;;
21192;SDS011;10754;51.106;7.164;2023-03-08T06:29:47;4.87;;;4.47;;
21192;SDS011;10754;51.106;7.164;2023-03-08T06:32:12;4.90;;;4.07;;
21192;SDS011;10754;51.106;7.164;2023-03-08T06:34:38;5.27;;;4.63;;
21192;SDS011;10754;51.106;7.164;2023-03-08T06:37:03;4.87;;;4.47;;
21192;SDS011;10754;51.106;7.164;2023-03-08T06:39:29;5.13;;;4.63;;
21192;SDS011;10754;51.106;7.164;2023-03-08T06:41:55;6.17;;;4.83;;
21192;SDS011;10754;51.106;7.164;2023-03-08T06:44:21;5.40;;;4.90;;
21192;SDS011;10754;51.106;7.164;2023-03-08T06:46:47;5.57;;;5.07;;
21192;SDS011;10754;51.106;7.164;2023-03-08T06:49:13;5.20;;;4.67;;
21192;SDS011;10754;51.106;7.164;2023-03-08T06:51:38;5.33;;;4.83;;
21192;SDS011;10754;51.106;7.164;2023-03-08T06:54:04;5.83;;;5.33;;
21192;SDS011;10754;51.106;7.164;2023-03-08T06:56:30;4.80;;;4.40;;
21192;SDS011;10754;51.106;7.164;2023-03-08T06:58:55;4.70;;;3.97;;
21192;SDS011;10754;51.106;7.164;2023-03-08T07:01:21;4.80;;;4.17;;
21192;SDS011;10754;51.106;7.164;2023-03-08T07:03:46;4.17;;;3.77;;
21192;SDS011;10754;51.106;7.164;2023-03-08T07:06:13;4.83;;;4.37;;
21192;SDS011;10754;51.106;7.164;2023-03-08T07:08:39;3.63;;;3.13;;
21192;SDS011;10754;51.106;7.164;2023-03-08T07:11:05;4.17;;;3.77;;
21192;SDS011;10754;51.106;7.164;2023-03-08T07:13:32;3.27;;;2.97;;
21192;SDS011;10754;51.106;7.164;2023-03-08T07:15:58;3.40;;;3.10;;
21192;SDS011;10754;51.106;7.164;2023-03-08T07:18:23;2.93;;;2.70;;
21192;SDS011;10754;51.106;7.164;2023-03-08T07:20:54;2.93;;;2.73;;
21192;SDS011;10754;51.106;7.164;2023-03-08T07:23:20;3.50;;;3.20;;
21192;SDS011;10754;51.106;7.164;2023-03-08T07:25:45;3.27;;;2.97;;
21192;SDS011;10754;51.106;7.164;2023-03-08T07:28:11;2.87;;;2.67;;
21192;SDS011;10754;51.106;7.164;2023-03-08T07:30:36;2.80;;;2.60;;
21192;SDS011;10754;51.106;7.164;2023-03-08T07:33:02;3.03;;;2.83;;
21192;SDS011;10754;51.106;7.164;2023-03-08T07:35:27;2.80;;;2.60;;
21192;SDS011;10754;51.106;7.164;2023-03-08T07:37:53;2.60;;;2.37;;
21192;SDS011;10754;51.106;7.164;2023-03-08T07:40:18;3.00;;;2.67;;
21192;SDS011;10754;51.106;7.164;2023-03-08T07:42:44;2.70;;;2.50;;
21192;SDS011;10754;51.106;7.164;2023-03-08T07:45:10;2.97;;;2.63;;
21192;SDS011;10754;51.106;7.164;2023-03-08T07:47:36;2.50;;;2.30;;
21192;SDS011;10754;51.106;7.164;2023-03-08T07:50:02;3.30;;;2.70;;
21192;SDS011;10754;51.106;7.164;2023-03-08T07:52:28;2.67;;;2.47;;
21192;SDS011;10754;51.106;7.164;2023-03-08T07:54:55;2.57;;;2.37;;
21192;SDS011;10754;51.106;7.164;2023-03-08T07:57:20;2.70;;;2.50;;
21192;SDS011;10754;51.106;7.164;2023-03-08T07:59:46;2.80;;;2.60;;
21192;SDS011;10754;51.106;7.164;2023-03-08T08:02:12;3.43;;;2.60;;
21192;SDS011;10754;51.106;7.164;2023-03-08T08:04:39;3.10;;;2.90;;
21192;SDS011;10754;51.106;7.164;2023-03-08T08:07:04;2.40;;;2.20;;
21192;SDS011;10754;51.106;7.164;2023-03-08T08:09:30;2.90;;;2.30;;
21192;SDS011;10754;51.106;7.164;2023-03-08T08:11:56;3.07;;;2.77;;
21192;SDS011;10754;51.106;7.164;2023-03-08T08:14:21;2.63;;;2.43;;
21192;SDS011;10754;51.106;7.164;2023-03-08T08:16:47;2.57;;;2.37;;
21192;SDS011;10754;51.106;7.164;2023-03-08T08:19:12;2.53;;;2.30;;
21192;SDS011;10754;51.106;7.164;2023-03-08T08:21:38;2.47;;;2.27;;
21192;SDS011;10754;51.106;7.164;2023-03-08T08:24:04;2.73;;;2.50;;
21192;SDS011;10754;51.106;7.164;2023-03-08T08:26:31;3.70;;;2.60;;
21192;SDS011;10754;51.106;7.164;2023-03-08T08:28:56;2.60;;;2.37;;
21192;SDS011;10754;51.106;7.164;2023-03-08T08:31:23;2.70;;;2.50;;
21192;SDS011;10754;51.106;7.164;2023-03-08T08:33:52;2.70;;;2.50;;
21192;SDS011;10754;51.106;7.164;2023-03-08T08:36:18;2.60;;;2.40;;
21192;SDS011;10754;51.106;7.164;2023-03-08T08:38:44;2.87;;;2.67;;
21192;SDS011;10754;51.106;7.164;2023-03-08T08:41:11;2.87;;;2.67;;
21192;SDS011;10754;51.106;7.164;2023-03-08T08:43:39;3.10;;;2.90;;
21192;SDS011;10754;51.106;7.164;2023-03-08T08:46:05;3.00;;;2.80;;
21192;SDS011;10754;51.106;7.164;2023-03-08T08:48:30;3.00;;;2.80;;
21192;SDS011;10754;51.106;7.164;2023-03-08T08:51:00;2.97;;;2.77;;
21192;SDS011;10754;51.106;7.164;2023-03-08T08:53:26;2.90;;;2.70;;
21192;SDS011;10754;51.106;7.164;2023-03-08T08:55:52;3.07;;;2.87;;
21192;SDS011;10754;51.106;7.164;2023-03-08T08:58:17;3.47;;;3.17;;
21192;SDS011;10754;51.106;7.164;2023-03-08T09:00:43;3.37;;;2.77;;
21192;SDS011;10754;51.106;7.164;2023-03-08T09:03:09;3.37;;;3.07;;
21192;SDS011;10754;51.106;7.164;2023-03-08T09:05:39;3.20;;;3.00;;
21192;SDS011;10754;51.106;7.164;2023-03-08T09:08:07;2.70;;;2.50;;
21192;SDS011;10754;51.106;7.164;2023-03-08T09:10:34;3.40;;;3.10;;
21192;SDS011;10754;51.106;7.164;2023-03-08T09:13:01;2.93;;;2.73;;
21192;SDS011;10754;51.106;7.164;2023-03-08T09:15:27;2.97;;;2.77;;
21192;SDS011;10754;51.106;7.164;2023-03-08T09:17:52;3.10;;;2.90;;
21192;SDS011;10754;51.106;7.164;2023-03-08T09:20:18;3.20;;;3.00;;
21192;SDS011;10754;51.106;7.164;2023-03-08T09:22:44;3.30;;;3.10;;
21192;SDS011;10754;51.106;7.164;2023-03-08T09:25:10;3.47;;;3.17;;
21192;SDS011;10754;51.106;7.164;2023-03-08T09:27:37;3.23;;;3.03;;
21192;SDS011;10754;51.106;7.164;2023-03-08T09:30:04;3.10;;;2.90;;
21192;SDS011;10754;51.106;7.164;2023-03-08T09:32:32;3.30;;;3.07;;
21192;SDS011;10754;51.106;7.164;2023-03-08T09:34:58;3.30;;;2.93;;
21192;SDS011;10754;51.106;7.164;2023-03-08T09:37:24;3.93;;;3.47;;
21192;SDS011;10754;51.106;7.164;2023-03-08T09:39:50;3.50;;;3.30;;
21192;SDS011;10754;51.106;7.164;2023-03-08T09:42:20;4.93;;;3.60;;
21192;SDS011;10754;51.106;7.164;2023-03-08T09:47:43;3.70;;;3.40;;
21192;SDS011;10754;51.106;7.164;2023-03-08T09:50:30;3.70;;;3.40;;
21192;SDS011;10754;51.106;7.164;2023-03-08T09:53:25;3.77;;;3.47;;
21192;SDS011;10754;51.106;7.164;2023-03-08T09:56:05;4.10;;;3.80;;
21192;SDS011;10754;51.106;7.164;2023-03-08T09:58:39;4.10;;;3.70;;
21192;SDS011;10754;51.106;7.164;2023-03-08T10:01:19;4.17;;;3.87;;
21192;SDS011;10754;51.106;7.164;2023-03-08T10:06:52;4.40;;;4.00;;
21192;SDS011;10754;51.106;7.164;2023-03-08T10:09:34;4.83;;;4.43;;
21192;SDS011;10754;51.106;7.164;2023-03-08T10:12:18;4.40;;;4.10;;
21192;SDS011;10754;51.106;7.164;2023-03-08T10:15:15;4.70;;;4.30;;
21192;SDS011;10754;51.106;7.164;2023-03-08T10:17:44;4.43;;;4.07;;
21192;SDS011;10754;51.106;7.164;2023-03-08T10:20:19;5.37;;;4.87;;
21192;SDS011;10754;51.106;7.164;2023-03-08T10:22:50;4.43;;;4.03;;
21192;SDS011;10754;51.106;7.164;2023-03-08T10:25:23;5.00;;;4.50;;
21192;SDS011;10754;51.106;7.164;2023-03-08T10:27:55;5.40;;;4.90;;
21192;SDS011;10754;51.106;7.164;2023-03-08T10:30:30;4.87;;;4.47;;
21192;SDS011;10754;51.106;7.164;2023-03-08T10:32:58;4.80;;;4.30;;
21192;SDS011;10754;51.106;7.164;2023-03-08T10:35:31;4.57;;;4.13;;
21192;SDS011;10754;51.106;7.164;2023-03-08T10:38:00;4.50;;;4.10;;
21192;SDS011;10754;51.106;7.164;2023-03-08T10:40:26;4.37;;;4.00;;
21192;SDS011;10754;51.106;7.164;2023-03-08T10:42:54;5.20;;;4.80;;
21192;SDS011;10754;51.106;7.164;2023-03-08T10:45:25;4.70;;;4.30;;
21192;SDS011;10754;51.106;7.164;2023-03-08T10:50:25;4.30;;;4.00;;
21192;SDS011;10754;51.106;7.164;2023-03-08T10:53:13;4.50;;;4.10;;
21192;SDS011;10754;51.106;7.164;2023-03-08T10:55:46;4.80;;;4.40;;
21192;SDS011;10754;51.106;7.164;2023-03-08T10:58:33;4.77;;;4.27;;
21192;SDS011;10754;51.106;7.164;2023-03-08T11:01:04;4.60;;;4.20;;
21192;SDS011;10754;51.106;7.164;2023-03-08T11:03:46;4.43;;;4.03;;
21192;SDS011;10754;51.106;7.164;2023-03-08T11:06:23;4.17;;;3.87;;
21192;SDS011;10754;51.106;7.164;2023-03-08T11:08:53;4.07;;;3.77;;
21192;SDS011;10754;51.106;7.164;2023-03-08T11:11:21;3.73;;;3.43;;
21192;SDS011;10754;51.106;7.164;2023-03-08T11:13:47;4.27;;;3.87;;
21192;SDS011;10754;51.106;7.164;2023-03-08T11:16:20;3.83;;;3.53;;
21192;SDS011;10754;51.106;7.164;2023-03-08T11:27:31;4.17;;;3.87;;
21192;SDS011;10754;51.106;7.164;2023-03-08T11:30:26;4.10;;;3.80;;
21192;SDS011;10754;51.106;7.164;2023-03-08T11:36:11;4.13;;;3.77;;
21192;SDS011;10754;51.106;7.164;2023-03-08T11:38:51;4.63;;;4.23;;
21192;SDS011;10754;51.106;7.164;2023-03-08T11:46:31;4.67;;;4.27;;
21192;SDS011;10754;51.106;7.164;2023-03-08T11:57:53;3.90;;;3.60;;
21192;SDS011;10754;51.106;7.164;2023-03-08T12:00:28;4.00;;;3.20;;
21192;SDS011;10754;51.106;7.164;2023-03-08T12:02:59;4.00;;;3.70;;
21192;SDS011;10754;51.106;7.164;2023-03-08T12:05:44;3.97;;;3.67;;
21192;SDS011;10754;51.106;7.164;2023-03-08T12:08:41;4.13;;;3.83;;
21192;SDS011;10754;51.106;7.164;2023-03-08T12:11:17;4.37;;;3.97;;
21192;SDS011;10754;51.106;7.164;2023-03-08T12:13:47;4.33;;;3.93;;
21192;SDS011;10754;51.106;7.164;2023-03-08T12:16:24;4.13;;;3.83;;
21192;SDS011;10754;51.106;7.164;2023-03-08T12:19:05;4.30;;;4.00;;
21192;SDS011;10754;51.106;7.164;2023-03-08T12:24:33;4.03;;;3.73;;
21192;SDS011;10754;51.106;7.164;2023-03-08T12:29:36;4.70;;;4.30;;
21192;SDS011;10754;51.106;7.164;2023-03-08T12:32:19;4.80;;;4.40;;
21192;SDS011;10754;51.106;7.164;2023-03-08T12:34:45;4.53;;;4.13;;
21192;SDS011;10754;51.106;7.164;2023-03-08T12:37:28;4.20;;;3.83;;
21192;SDS011;10754;51.106;7.164;2023-03-08T12:39:55;4.00;;;3.60;;
21192;SDS011;10754;51.106;7.164;2023-03-08T12:43:01;4.40;;;4.00;;
21192;SDS011;10754;51.106;7.164;2023-03-08T12:47:53;3.93;;;3.63;;
21192;SDS011;10754;51.106;7.164;2023-03-08T12:50:42;4.40;;;4.00;;
21192;SDS011;10754;51.106;7.164;2023-03-08T12:53:23;3.87;;;3.57;;
21192;SDS011;10754;51.106;7.164;2023-03-08T12:56:47;3.70;;;3.40;;
21192;SDS011;10754;51.106;7.164;2023-03-08T13:01:26;3.80;;;3.50;;
21192;SDS011;10754;51.106;7.164;2023-03-08T13:03:55;4.23;;;3.87;;
21192;SDS011;10754;51.106;7.164;2023-03-08T13:08:54;4.47;;;4.17;;
21192;SDS011;10754;51.106;7.164;2023-03-08T13:11:36;4.27;;;3.97;;
21192;SDS011;10754;51.106;7.164;2023-03-08T13:14:21;4.40;;;4.00;;
21192;SDS011;10754;51.106;7.164;2023-03-08T13:20:03;4.07;;;3.77;;
21192;SDS011;10754;51.106;7.164;2023-03-08T13:25:43;4.23;;;3.90;;
21192;SDS011;10754;51.106;7.164;2023-03-08T13:28:14;4.27;;;3.90;;
21192;SDS011;10754;51.106;7.164;2023-03-08T13:30:55;4.20;;;3.87;;
21192;SDS011;10754;51.106;7.164;2023-03-08T13:33:26;5.23;;;4.30;;
21192;SDS011;10754;51.106;7.164;2023-03-08T13:36:02;4.30;;;4.00;;
21192;SDS011;10754;51.106;7.164;2023-03-08T13:38:33;4.27;;;3.90;;
21192;SDS011;10754;51.106;7.164;2023-03-08T13:41:00;3.93;;;3.63;;
21192;SDS011;10754;51.106;7.164;2023-03-08T13:43:28;4.80;;;4.40;;
21192;SDS011;10754;51.106;7.164;2023-03-08T13:45:55;4.70;;;4.30;;
21192;SDS011;10754;51.106;7.164;2023-03-08T13:48:23;4.40;;;4.00;;
21192;SDS011;10754;51.106;7.164;2023-03-08T13:50:53;4.80;;;4.40;;
21192;SDS011;10754;51.106;7.164;2023-03-08T13:53:23;5.00;;;4.60;;
21192;SDS011;10754;51.106;7.164;2023-03-08T13:55:52;4.83;;;4.43;;
21192;SDS011;10754;51.106;7.164;2023-03-08T13:58:37;5.20;;;4.80;;
21192;SDS011;10754;51.106;7.164;2023-03-08T14:01:18;5.00;;;4.60;;
21192;SDS011;10754;51.106;7.164;2023-03-08T14:03:49;4.70;;;4.30;;
21192;SDS011;10754;51.106;7.164;2023-03-08T14:06:23;4.13;;;3.83;;
21192;SDS011;10754;51.106;7.164;2023-03-08T14:08:54;4.20;;;3.90;;
21192;SDS011;10754;51.106;7.164;2023-03-08T14:11:26;4.80;;;4.40;;
21192;SDS011;10754;51.106;7.164;2023-03-08T14:13:54;4.13;;;3.83;;
21192;SDS011;10754;51.106;7.164;2023-03-08T14:16:23;4.87;;;4.43;;
21192;SDS011;10754;51.106;7.164;2023-03-08T14:19:07;5.17;;;4.67;;
21192;SDS011;10754;51.106;7.164;2023-03-08T14:21:53;4.70;;;4.30;;
21192;SDS011;10754;51.106;7.164;2023-03-08T14:24:21;4.83;;;4.30;;
21192;SDS011;10754;51.106;7.164;2023-03-08T14:27:26;4.33;;;4.03;;
21192;SDS011;10754;51.106;7.164;2023-03-08T14:29:39;5.00;;;4.60;;
21192;SDS011;10754;51.106;7.164;2023-03-08T14:34:41;5.50;;;5.07;;
21192;SDS011;10754;51.106;7.164;2023-03-08T14:39:37;4.30;;;4.00;;
21192;SDS011;10754;51.106;7.164;2023-03-08T14:42:40;5.37;;;4.87;;
21192;SDS011;10754;51.106;7.164;2023-03-08T14:45:14;5.07;;;4.67;;
21192;SDS011;10754;51.106;7.164;2023-03-08T14:47:59;4.23;;;3.83;;
21192;SDS011;10754;51.106;7.164;2023-03-08T14:50:32;4.33;;;3.93;;
21192;SDS011;10754;51.106;7.164;2023-03-08T14:52:59;4.93;;;4.47;;
21192;SDS011;10754;51.106;7.164;2023-03-08T14:55:33;4.93;;;4.43;;
21192;SDS011;10754;51.106;7.164;2023-03-08T14:58:03;5.10;;;4.57;;
21192;SDS011;10754;51.106;7.164;2023-03-08T15:00:35;5.03;;;4.57;;
21192;SDS011;10754;51.106;7.164;2023-03-08T15:03:00;4.87;;;4.37;;
21192;SDS011;10754;51.106;7.164;2023-03-08T15:05:26;5.10;;;4.60;;
21192;SDS011;10754;51.106;7.164;2023-03-08T15:07:53;4.70;;;4.30;;
21192;SDS011;10754;51.106;7.164;2023-03-08T15:12:53;8.00;;;4.40;;
21192;SDS011;10754;51.106;7.164;2023-03-08T15:15:19;5.13;;;4.63;;
21192;SDS011;10754;51.106;7.164;2023-03-08T15:17:45;4.93;;;4.40;;
21192;SDS011;10754;51.106;7.164;2023-03-08T15:20:11;4.13;;;3.83;;
21192;SDS011;10754;51.106;7.164;2023-03-08T15:22:39;4.90;;;4.50;;
21192;SDS011;10754;51.106;7.164;2023-03-08T15:25:50;4.40;;;4.10;;
21192;SDS011;10754;51.106;7.164;2023-03-08T15:28:09;5.00;;;4.60;;
21192;SDS011;10754;51.106;7.164;2023-03-08T15:30:37;4.57;;;4.20;;
21192;SDS011;10754;51.106;7.164;2023-03-08T15:33:03;4.40;;;4.10;;
21192;SDS011;10754;51.106;7.164;2023-03-08T15:35:28;5.50;;;4.73;;
21192;SDS011;10754;51.106;7.164;2023-03-08T15:37:54;4.67;;;4.27;;
21192;SDS011;10754;51.106;7.164;2023-03-08T15:40:21;4.03;;;3.73;;
21192;SDS011;10754;51.106;7.164;2023-03-08T15:42:49;4.80;;;4.40;;
21192;SDS011;10754;51.106;7.164;2023-03-08T15:45:14;4.93;;;4.53;;
21192;SDS011;10754;51.106;7.164;2023-03-08T15:47:40;4.30;;;4.00;;
21192;SDS011;10754;51.106;7.164;2023-03-08T15:50:12;4.23;;;3.93;;
21192;SDS011;10754;51.106;7.164;2023-03-08T15:52:40;4.47;;;4.10;;
21192;SDS011;10754;51.106;7.164;2023-03-08T15:55:06;4.73;;;4.33;;
21192;SDS011;10754;51.106;7.164;2023-03-08T15:57:32;4.80;;;4.40;;
21192;SDS011;10754;51.106;7.164;2023-03-08T15:59:58;4.80;;;4.40;;
21192;SDS011;10754;51.106;7.164;2023-03-08T16:02:24;4.70;;;4.30;;
21192;SDS011;10754;51.106;7.164;2023-03-08T16:04:50;4.73;;;4.37;;